Kerrick, TX (79051)

2:27 PM CST on December 10, 2016 (GMT -0600)
McDaniel Farm | | Change Station

Elev 3957 ft 36.46 °N, 102.32 °W | Updated 5 seconds ago

Partly Cloudy
Partly Cloudy
67.1 °F
Feels Like 67.1 °F
N
19.7
Wind Variable Wind from South
Gusts 24.8 mph

Today
High -- | Low -- °F
--% Chance of Precip.
Yesterday
High -- | Low -- °F
Precip. -- in
Pressure 29.86 in
Visibility 10.0 miles
Clouds Clear
Dew Point 25 °F
Humidity 20%
Rainfall 0.00 in
Snow Depth Not available.
7:50 AM 5:33 PM
Waxing Gibbous, 86% visible
METAR KDHT 101953Z AUTO 21017G23KT 10SM CLR 19/M02 A2989 RMK AO2 SLP110 T01941017
Pressure 29.86 in
Visibility 10.0 miles
Clouds Clear
Dew Point 25 °F
Humidity 20%
Rainfall 0.00 in
Snow Depth Not available.
7:50 AM 5:33 PM
Waxing Gibbous, 86% visible
METAR KDHT 101953Z AUTO 21017G23KT 10SM CLR 19/M02 A2989 RMK AO2 SLP110 T01941017

10-Day Weather Forecast

Almanac

Astronomy

Dec. 10, 2016 Rise Set
Actual Time
Civil Twilight
Nautical Twilight
Astronomical Twilight
Moon
Length of Visible Light
Length of Day
Tomorrow will be .
, % of the Moon is Illuminated

Today's Extremes

State Highs State Lows

Community

WunderPhotos

Upload Photos

1,956,651 photos uploaded!

WunderBlog® & News

Nearby

Air Quality

  Air Quality AQ Index Pollutant
Not available.

Snow Depth

Station Depth Elevation

Earthquake Activity

City Distance Mag. Time & Date
Minimum magnitude displayed is 2.5.

Coastal Water Temperatures

Place Temperature

Stations

Nearby Weather Stations

Station Location Temp. Windchill Dew Point Humidity Wind Precip. Elev Updated Type
                   

Watches & Warnings

There are currently no watches in effect.